createdAt,value
2023-03-26T00:00:51.924Z,0.70
2023-03-26T00:03:18.317Z,0.50
2023-03-26T00:05:45.888Z,0.50
2023-03-26T00:08:12.355Z,0.43
2023-03-26T00:10:40.513Z,0.75
2023-03-26T00:13:07.566Z,0.70
2023-03-26T00:15:35.361Z,0.65
2023-03-26T00:18:02.042Z,0.43
2023-03-26T00:20:30.710Z,0.68
2023-03-26T00:22:57.121Z,0.40
2023-03-26T00:25:23.410Z,0.50
2023-03-26T00:27:50.575Z,0.52
2023-03-26T00:30:17.132Z,0.60
2023-03-26T00:32:43.898Z,0.70
2023-03-26T00:35:20.451Z,0.75
2023-03-26T00:37:46.749Z,0.73
2023-03-26T00:40:13.185Z,0.55
2023-03-26T00:42:39.666Z,0.70
2023-03-26T00:45:07.018Z,0.60
2023-03-26T00:47:34.197Z,0.60
2023-03-26T00:50:00.578Z,0.60
2023-03-26T00:52:27.102Z,0.60
2023-03-26T00:54:53.780Z,0.73
2023-03-26T00:57:32.962Z,0.70
2023-03-26T01:00:01.711Z,0.60
2023-03-26T01:02:28.070Z,0.60
2023-03-26T01:04:58.747Z,1.08
2023-03-26T01:07:26.561Z,0.70
2023-03-26T01:09:53.812Z,1.02
2023-03-26T01:12:23.933Z,0.82
2023-03-26T01:14:52.934Z,0.93
2023-03-26T01:17:19.322Z,0.70
2023-03-26T01:19:53.511Z,0.65
2023-03-26T01:22:23.800Z,0.90
2023-03-26T01:24:50.827Z,0.82
2023-03-26T01:27:40.033Z,0.88
2023-03-26T01:30:24.407Z,0.73
2023-03-26T01:33:06.098Z,0.70
2023-03-26T01:35:54.388Z,0.80
2023-03-26T01:38:35.795Z,0.70
2023-03-26T01:41:13.960Z,0.80
2023-03-26T01:43:54.118Z,0.65
2023-03-26T01:46:23.471Z,0.80
2023-03-26T01:48:49.907Z,0.98
2023-03-26T01:51:27.558Z,0.93
2023-03-26T01:53:55.245Z,1.30
2023-03-26T01:56:30.527Z,0.52
2023-03-26T01:59:10.657Z,0.60
2023-03-26T02:01:45.350Z,0.85
2023-03-26T02:04:33.123Z,0.80
2023-03-26T02:07:08.743Z,0.70
2023-03-26T02:09:43.192Z,0.77
2023-03-26T02:12:09.841Z,1.02
2023-03-26T02:14:36.314Z,1.00
2023-03-26T02:17:02.757Z,0.75
2023-03-26T02:19:29.062Z,0.93
2023-03-26T02:21:55.346Z,0.80
2023-03-26T02:24:21.659Z,0.50
2023-03-26T02:26:48.024Z,0.70
2023-03-26T02:29:15.302Z,1.08
2023-03-26T02:31:41.647Z,0.73
2023-03-26T02:34:07.979Z,0.70
2023-03-26T02:36:34.357Z,0.50
2023-03-26T02:39:00.702Z,0.75
2023-03-26T02:41:27.062Z,0.90
2023-03-26T02:43:53.397Z,0.60
2023-03-26T02:46:19.821Z,0.60
2023-03-26T02:48:46.184Z,0.82
2023-03-26T02:51:12.534Z,0.70
2023-03-26T02:53:38.905Z,0.55
2023-03-26T02:56:05.699Z,0.90
2023-03-26T02:58:32.008Z,0.60
2023-03-26T03:00:58.339Z,0.80
2023-03-26T03:03:26.693Z,0.50
2023-03-26T03:05:55.009Z,1.10
2023-03-26T03:08:23.958Z,0.75
2023-03-26T03:11:22.656Z,0.80
2023-03-26T03:13:49.278Z,0.73
2023-03-26T03:16:16.218Z,0.60
2023-03-26T03:18:42.692Z,0.95
2023-03-26T03:21:08.994Z,0.90
2023-03-26T03:23:35.382Z,0.95
2023-03-26T03:26:01.745Z,0.80
2023-03-26T03:28:28.033Z,0.80
2023-03-26T03:30:54.347Z,0.95
2023-03-26T03:33:20.925Z,1.25
2023-03-26T03:35:48.789Z,0.60
2023-03-26T03:38:16.763Z,0.93
2023-03-26T03:40:43.746Z,1.02
2023-03-26T03:43:10.141Z,0.70
2023-03-26T03:45:36.432Z,0.95
2023-03-26T03:48:03.004Z,1.00
2023-03-26T03:50:29.501Z,1.05
2023-03-26T03:52:55.785Z,1.38
2023-03-26T03:55:22.093Z,0.88
2023-03-26T03:57:48.410Z,1.10
2023-03-26T04:00:15.311Z,1.13
2023-03-26T04:02:41.823Z,1.00
2023-03-26T04:05:08.419Z,1.00
2023-03-26T04:07:34.763Z,0.95
2023-03-26T04:10:01.499Z,0.95
2023-03-26T04:12:28.700Z,0.80
2023-03-26T04:14:55.883Z,1.13
2023-03-26T04:17:22.780Z,0.80
2023-03-26T04:19:50.686Z,0.80
2023-03-26T04:22:17.194Z,0.98
2023-03-26T04:24:43.792Z,1.00
2023-03-26T04:27:15.306Z,0.73
2023-03-26T04:29:44.262Z,0.80
2023-03-26T04:32:16.631Z,0.90
2023-03-26T04:34:42.960Z,0.85
2023-03-26T04:37:17.225Z,0.80
2023-03-26T04:39:43.530Z,0.90
2023-03-26T04:42:11.176Z,0.88
2023-03-26T04:47:03.771Z,0.90
2023-03-26T04:49:30.063Z,0.90
2023-03-26T04:51:56.392Z,0.80
2023-03-26T04:54:23.190Z,0.65
2023-03-26T04:56:59.269Z,0.80
2023-03-26T04:59:30.889Z,0.88
2023-03-26T05:01:58.062Z,1.30
2023-03-26T05:04:24.845Z,0.80
2023-03-26T05:06:51.195Z,0.90
2023-03-26T05:09:17.628Z,0.90
2023-03-26T05:11:43.915Z,0.63
2023-03-26T05:14:10.206Z,0.82
2023-03-26T05:16:38.316Z,0.80
2023-03-26T05:19:04.949Z,0.93
2023-03-26T05:21:31.256Z,1.15
2023-03-26T05:23:57.550Z,0.77
2023-03-26T05:26:24.002Z,0.88
2023-03-26T05:28:50.366Z,1.17
2023-03-26T05:31:19.527Z,1.00
2023-03-26T05:33:46.051Z,1.02
2023-03-26T05:36:13.499Z,0.85
2023-03-26T05:38:39.916Z,0.80
2023-03-26T05:41:07.935Z,0.90
2023-03-26T05:46:01.266Z,0.90
2023-03-26T05:48:27.950Z,1.10
2023-03-26T05:50:56.816Z,1.10
2023-03-26T05:53:25.507Z,1.70
2023-03-26T05:55:51.891Z,1.38
2023-03-26T05:58:18.265Z,1.42
2023-03-26T06:00:44.576Z,1.80
2023-03-26T06:03:10.954Z,1.60
2023-03-26T06:05:38.689Z,1.10
2023-03-26T06:10:31.815Z,1.10
2023-03-26T06:12:58.207Z,1.15
2023-03-26T06:15:24.512Z,0.85
2023-03-26T06:17:50.860Z,0.98
2023-03-26T06:20:17.360Z,1.17
2023-03-26T06:22:43.661Z,0.80
2023-03-26T06:25:09.967Z,1.30
2023-03-26T06:27:36.351Z,1.15
2023-03-26T06:30:02.768Z,1.27
2023-03-26T06:32:29.067Z,0.90
2023-03-26T06:34:55.728Z,1.23
2023-03-26T06:37:22.006Z,1.25
2023-03-26T06:39:48.308Z,1.17
2023-03-26T06:42:14.607Z,1.30
2023-03-26T06:44:40.904Z,1.13
2023-03-26T06:47:07.325Z,1.45
2023-03-26T06:49:33.617Z,1.20
2023-03-26T06:52:00.041Z,1.40
2023-03-26T06:54:26.493Z,1.05
2023-03-26T06:56:52.952Z,1.33
2023-03-26T06:59:19.485Z,1.67
2023-03-26T07:01:46.772Z,1.55
2023-03-26T07:04:13.251Z,1.20
2023-03-26T07:06:39.722Z,1.13
2023-03-26T07:09:06.152Z,1.13
2023-03-26T07:11:32.478Z,1.42
2023-03-26T07:13:58.810Z,1.00
2023-03-26T07:16:25.461Z,1.10
2023-03-26T07:18:51.879Z,1.45
2023-03-26T07:21:18.405Z,1.15
2023-03-26T07:23:45.121Z,1.10
2023-03-26T07:26:30.536Z,1.10
2023-03-26T07:29:08.401Z,1.30
2023-03-26T07:32:00.322Z,1.05
2023-03-26T07:34:49.318Z,0.90
2023-03-26T07:37:30.220Z,0.90
2023-03-26T07:40:27.812Z,1.17
2023-03-26T07:43:16.107Z,0.93
2023-03-26T07:45:43.955Z,1.00
2023-03-26T07:48:21.335Z,1.10
2023-03-26T07:50:48.441Z,0.98
2023-03-26T07:53:15.269Z,1.60
2023-03-26T07:55:53.122Z,1.10
2023-03-26T07:58:52.354Z,1.00
2023-03-26T08:01:43.596Z,0.80
2023-03-26T08:04:39.318Z,1.10
2023-03-26T08:07:28.778Z,1.10
2023-03-26T08:10:20.723Z,1.00
2023-03-26T08:13:08.618Z,1.30
2023-03-26T08:16:00.118Z,1.10
2023-03-26T08:18:56.133Z,1.38
2023-03-26T08:21:28.159Z,1.20
2023-03-26T08:24:13.206Z,1.08
2023-03-26T08:27:01.785Z,1.15
2023-03-26T08:29:53.710Z,1.30
2023-03-26T08:32:20.737Z,1.10
2023-03-26T08:34:47.438Z,1.35
2023-03-26T08:37:13.746Z,1.50
2023-03-26T08:39:40.120Z,1.20
2023-03-26T08:42:25.738Z,1.20
2023-03-26T08:45:14.687Z,1.40
2023-03-26T08:48:10.452Z,1.73
2023-03-26T08:50:45.578Z,3.17
2023-03-26T08:53:24.096Z,3.97
2023-03-26T08:55:57.033Z,3.30
2023-03-26T08:58:53.842Z,3.78
2023-03-26T09:01:51.106Z,3.00
2023-03-26T09:04:42.187Z,4.65
2023-03-26T09:07:47.204Z,5.07
2023-03-26T09:10:35.617Z,4.43
2023-03-26T09:13:20.143Z,2.60
2023-03-26T09:16:11.350Z,4.28
2023-03-26T09:19:22.370Z,2.35
2023-03-26T09:22:29.046Z,2.38
2023-03-26T09:25:14.105Z,2.20
2023-03-26T09:27:53.955Z,2.08
2023-03-26T09:30:43.454Z,2.15
2023-03-26T09:33:50.160Z,2.45
2023-03-26T09:36:21.078Z,2.67
2023-03-26T09:39:05.830Z,2.10
2023-03-26T09:42:03.180Z,1.50
2023-03-26T09:44:41.847Z,1.55
2023-03-26T09:47:48.104Z,2.10
2023-03-26T09:50:36.989Z,1.95
2023-03-26T09:53:21.475Z,2.15
2023-03-26T09:55:58.708Z,2.20
2023-03-26T09:59:02.647Z,2.10
2023-03-26T10:04:42.929Z,2.00
2023-03-26T10:07:21.588Z,1.70
2023-03-26T10:10:04.364Z,2.00
2023-03-26T10:12:42.470Z,2.38
2023-03-26T10:15:26.441Z,2.70
2023-03-26T10:18:38.430Z,2.28
2023-03-26T10:21:41.065Z,2.22
2023-03-26T10:24:47.021Z,2.10
2023-03-26T10:27:27.539Z,4.13
2023-03-26T10:30:07.971Z,1.50
2023-03-26T10:32:57.761Z,1.80
2023-03-26T10:35:42.194Z,1.70
2023-03-26T10:38:58.495Z,1.40
2023-03-26T10:41:43.328Z,1.25
2023-03-26T10:44:48.704Z,1.70
2023-03-26T10:48:02.093Z,1.33
2023-03-26T10:50:49.436Z,1.63
2023-03-26T10:53:43.546Z,1.50
2023-03-26T10:56:23.231Z,2.60
2023-03-26T10:58:50.097Z,1.10
2023-03-26T11:01:43.981Z,1.38
2023-03-26T11:04:26.429Z,1.88
2023-03-26T11:07:04.955Z,2.00
2023-03-26T11:09:48.952Z,2.03
2023-03-26T11:12:26.124Z,2.70
2023-03-26T11:15:13.853Z,2.33
2023-03-26T11:17:55.534Z,2.75
2023-03-26T11:20:37.265Z,2.70
2023-03-26T11:23:29.086Z,4.22
2023-03-26T11:29:03.227Z,1.92
2023-03-26T11:31:51.471Z,2.20
2023-03-26T11:34:23.836Z,3.60
2023-03-26T11:36:54.234Z,2.80
2023-03-26T11:39:45.465Z,2.08
2023-03-26T11:42:15.826Z,1.70
2023-03-26T11:45:00.707Z,1.60
2023-03-26T11:47:47.959Z,3.33
2023-03-26T11:50:20.517Z,2.13
2023-03-26T11:52:47.167Z,1.30
2023-03-26T11:55:13.958Z,1.20
2023-03-26T11:57:49.333Z,1.38
2023-03-26T12:00:18.985Z,1.10
2023-03-26T12:02:48.748Z,3.75
2023-03-26T12:05:15.198Z,2.05
2023-03-26T12:07:53.396Z,3.03
2023-03-26T12:10:28.225Z,2.10
2023-03-26T12:12:57.935Z,1.67
2023-03-26T12:15:25.389Z,1.98
2023-03-26T12:20:25.607Z,1.40
2023-03-26T12:22:57.510Z,1.52
2023-03-26T12:25:26.340Z,1.50
2023-03-26T12:28:02.074Z,1.67
2023-03-26T12:30:30.512Z,1.55
2023-03-26T12:32:59.969Z,1.55
2023-03-26T12:35:28.886Z,1.50
2023-03-26T12:38:13.162Z,1.10
2023-03-26T12:40:39.945Z,1.23
2023-03-26T12:44:54.486Z,1.40
2023-03-26T12:47:54.933Z,1.10
2023-03-26T12:49:07.593Z,1.15
2023-03-26T12:52:04.369Z,1.13
2023-03-26T12:54:42.441Z,1.10
2023-03-26T12:57:18.287Z,1.05
2023-03-26T12:59:52.622Z,1.00
2023-03-26T13:03:10.517Z,0.80
2023-03-26T13:06:08.933Z,1.10
2023-03-26T13:08:50.719Z,0.82
2023-03-26T13:11:30.004Z,0.88
2023-03-26T13:14:05.053Z,0.82
2023-03-26T13:16:40.020Z,0.93
2023-03-26T13:19:14.411Z,0.80
2023-03-26T13:22:02.570Z,0.95
2023-03-26T13:25:02.176Z,0.90
2023-03-26T13:27:53.544Z,0.70
2023-03-26T13:30:48.007Z,0.95
2023-03-26T13:33:31.682Z,0.80
2023-03-26T13:36:22.377Z,0.80
2023-03-26T13:39:02.054Z,0.60
2023-03-26T13:41:57.547Z,0.60
2023-03-26T13:44:40.437Z,0.70
2023-03-26T13:47:21.748Z,0.60
2023-03-26T13:50:14.210Z,0.80
2023-03-26T13:53:07.915Z,0.70
2023-03-26T13:55:52.967Z,0.82
2023-03-26T13:58:34.829Z,0.63
2023-03-26T14:01:09.701Z,0.60
2023-03-26T14:03:57.574Z,0.70
2023-03-26T14:06:38.915Z,0.50
2023-03-26T14:09:12.778Z,0.73
2023-03-26T14:11:42.094Z,0.70
2023-03-26T14:14:18.349Z,0.60
2023-03-26T14:16:52.410Z,0.75
2023-03-26T14:19:40.494Z,0.70
2023-03-26T14:22:22.046Z,0.73
2023-03-26T14:25:02.493Z,0.70
2023-03-26T14:28:19.356Z,0.70
2023-03-26T14:31:00.651Z,0.50
2023-03-26T14:33:57.425Z,0.60
2023-03-26T14:36:58.675Z,1.20
2023-03-26T14:39:53.753Z,0.52
2023-03-26T14:42:41.080Z,0.70
2023-03-26T14:45:40.948Z,0.63
2023-03-26T14:48:46.588Z,0.75
2023-03-26T14:51:28.182Z,0.88
2023-03-26T14:54:00.786Z,0.50
2023-03-26T14:56:45.932Z,0.70
2023-03-26T14:59:52.249Z,0.52
2023-03-26T15:02:55.650Z,0.50
2023-03-26T15:05:44.751Z,0.60
2023-03-26T15:08:41.222Z,0.55
2023-03-26T15:11:46.152Z,0.60
2023-03-26T15:14:44.226Z,0.50
2023-03-26T15:17:28.056Z,0.60
2023-03-26T15:20:32.795Z,0.80
2023-03-26T15:23:36.421Z,0.60
2023-03-26T15:26:37.978Z,0.90
2023-03-26T15:29:17.094Z,0.55
2023-03-26T15:32:01.096Z,0.60
2023-03-26T15:34:56.006Z,0.65
2023-03-26T15:37:43.776Z,0.40
2023-03-26T15:40:18.883Z,0.68
2023-03-26T15:43:02.387Z,0.50
2023-03-26T15:45:38.171Z,0.47
2023-03-26T15:48:11.365Z,0.40
2023-03-26T15:50:59.637Z,0.60
2023-03-26T15:53:53.383Z,0.60
2023-03-26T15:56:25.412Z,0.50
2023-03-26T15:59:15.530Z,0.40
2023-03-26T16:01:59.432Z,0.57
2023-03-26T16:04:51.689Z,0.70
2023-03-26T16:07:24.344Z,0.90
2023-03-26T16:10:02.885Z,0.82
2023-03-26T16:12:31.211Z,0.90
2023-03-26T16:15:06.573Z,0.40
2023-03-26T16:18:10.474Z,0.82
2023-03-26T16:20:55.280Z,0.50
2023-03-26T16:23:47.664Z,0.52
2023-03-26T16:26:40.407Z,0.70
2023-03-26T16:29:19.922Z,0.50
2023-03-26T16:32:11.274Z,0.63
2023-03-26T16:34:49.851Z,0.70
2023-03-26T16:37:31.409Z,0.50
2023-03-26T16:40:16.296Z,0.70
2023-03-26T16:43:17.965Z,0.80
2023-03-26T16:46:10.617Z,0.80
2023-03-26T16:48:56.617Z,0.68
2023-03-26T16:51:35.081Z,0.80
2023-03-26T16:54:16.763Z,0.70
2023-03-26T16:56:53.520Z,0.68
2023-03-26T16:59:41.690Z,0.60
2023-03-26T17:02:43.541Z,0.63
2023-03-26T17:05:25.107Z,0.80
2023-03-26T17:08:03.022Z,0.70
2023-03-26T17:10:38.366Z,0.90
2023-03-26T17:13:13.533Z,0.85
2023-03-26T17:16:06.058Z,0.85
2023-03-26T17:18:43.810Z,0.68
2023-03-26T17:21:24.470Z,0.80
2023-03-26T17:24:18.070Z,1.20
2023-03-26T17:27:02.309Z,0.90
2023-03-26T17:29:51.442Z,0.70
2023-03-26T17:32:17.942Z,0.70
2023-03-26T17:34:50.255Z,0.73
2023-03-26T17:37:16.562Z,1.13
2023-03-26T17:39:42.793Z,0.90
2023-03-26T17:42:26.254Z,1.08
2023-03-26T17:44:56.604Z,1.25
2023-03-26T17:47:26.183Z,1.08
2023-03-26T17:50:02.893Z,0.70
2023-03-26T17:52:45.732Z,0.70
2023-03-26T17:55:18.123Z,0.88
2023-03-26T17:57:47.249Z,0.85
2023-03-26T18:00:17.568Z,0.90
2023-03-26T18:02:56.013Z,0.70
2023-03-26T18:05:26.451Z,0.80
2023-03-26T18:08:14.785Z,0.80
2023-03-26T18:11:10.170Z,0.73
2023-03-26T18:14:10.352Z,0.77
2023-03-26T18:16:40.703Z,1.08
2023-03-26T18:19:14.229Z,0.50
2023-03-26T18:21:40.608Z,0.93
2023-03-26T18:24:13.306Z,0.60
2023-03-26T18:26:44.420Z,0.70
2023-03-26T18:29:27.524Z,0.70
2023-03-26T18:31:59.641Z,0.60
2023-03-26T18:34:29.327Z,0.45
2023-03-26T18:37:07.708Z,0.60
2023-03-26T18:39:34.254Z,0.60
2023-03-26T18:42:00.633Z,0.50
2023-03-26T18:44:27.441Z,0.77
2023-03-26T18:46:53.908Z,0.57
2023-03-26T18:49:21.014Z,0.57
2023-03-26T18:51:56.771Z,0.50
2023-03-26T18:54:24.861Z,0.70
2023-03-26T18:56:51.211Z,0.50
2023-03-26T18:59:26.906Z,0.60
2023-03-26T19:01:55.347Z,0.50
2023-03-26T19:04:21.945Z,0.40
2023-03-26T19:06:48.512Z,0.40
2023-03-26T19:09:30.378Z,0.30
2023-03-26T19:12:24.304Z,0.50
2023-03-26T19:15:03.753Z,0.52
2023-03-26T19:17:38.404Z,0.40
2023-03-26T19:20:07.711Z,0.40
2023-03-26T19:22:34.365Z,0.50
2023-03-26T19:25:02.539Z,0.40
2023-03-26T19:27:28.989Z,0.40
2023-03-26T19:29:55.349Z,0.30
2023-03-26T19:32:29.888Z,0.30
2023-03-26T19:34:59.498Z,0.40
2023-03-26T19:37:28.179Z,0.30
2023-03-26T19:40:00.701Z,0.40
2023-03-26T19:42:43.100Z,0.32
2023-03-26T19:45:17.991Z,0.40
2023-03-26T19:50:27.537Z,0.40
2023-03-26T19:53:19.774Z,0.40
2023-03-26T19:56:06.319Z,0.50
2023-03-26T19:58:32.841Z,0.38
2023-03-26T20:00:59.383Z,0.50
2023-03-26T20:03:36.275Z,0.30
2023-03-26T20:06:02.601Z,0.50
2023-03-26T20:08:28.886Z,0.50
2023-03-26T20:10:57.059Z,0.70
2023-03-26T20:13:23.617Z,0.43
2023-03-26T20:16:21.469Z,0.63
2023-03-26T20:18:47.894Z,0.50
2023-03-26T20:21:14.338Z,0.50
2023-03-26T20:23:41.193Z,0.68
2023-03-26T20:26:12.537Z,0.80
2023-03-26T20:28:47.856Z,0.80
2023-03-26T20:31:17.721Z,0.52
2023-03-26T20:33:44.057Z,0.55
2023-03-26T20:36:12.769Z,0.80
2023-03-26T20:38:40.549Z,0.80
2023-03-26T20:41:12.051Z,0.70
2023-03-26T20:43:38.401Z,0.70
2023-03-26T20:46:04.906Z,0.80
2023-03-26T20:48:31.212Z,0.70
2023-03-26T20:50:57.752Z,1.02
2023-03-26T20:53:24.206Z,0.77
2023-03-26T20:55:51.612Z,0.70
2023-03-26T20:58:20.065Z,0.80
2023-03-26T21:03:25.982Z,0.63
2023-03-26T21:05:52.330Z,0.63
2023-03-26T21:08:19.715Z,0.73
2023-03-26T21:10:47.476Z,1.00
2023-03-26T21:13:38.835Z,0.90
2023-03-26T21:16:06.052Z,0.85
2023-03-26T21:18:32.595Z,1.15
2023-03-26T21:21:26.337Z,0.80
2023-03-26T21:24:00.427Z,1.10
2023-03-26T21:26:31.555Z,0.80
2023-03-26T21:28:58.021Z,0.70
2023-03-26T21:31:24.627Z,1.00
2023-03-26T21:33:51.248Z,0.80
2023-03-26T21:36:19.211Z,0.90
2023-03-26T21:38:46.222Z,1.55
2023-03-26T21:41:44.974Z,0.80
2023-03-26T21:44:11.282Z,0.77
2023-03-26T21:46:41.390Z,0.80
2023-03-26T21:49:08.022Z,0.80
2023-03-26T21:51:34.716Z,0.70
2023-03-26T21:54:01.329Z,0.75
2023-03-26T21:56:30.395Z,0.90
2023-03-26T21:59:24.758Z,0.80
2023-03-26T22:02:07.909Z,0.80
2023-03-26T22:04:36.909Z,1.10
2023-03-26T22:07:19.296Z,0.75
2023-03-26T22:09:45.926Z,0.90
2023-03-26T22:12:12.546Z,0.90
2023-03-26T22:14:39.028Z,0.95
2023-03-26T22:17:05.657Z,0.90
2023-03-26T22:19:31.984Z,1.08
2023-03-26T22:21:58.324Z,0.70
2023-03-26T22:24:24.678Z,0.90
2023-03-26T22:26:51.008Z,0.80
2023-03-26T22:29:17.365Z,0.80
2023-03-26T22:31:43.866Z,0.85
2023-03-26T22:34:10.297Z,0.70
2023-03-26T22:36:38.949Z,0.57
2023-03-26T22:39:06.557Z,0.70
2023-03-26T22:41:32.963Z,0.63
2023-03-26T22:44:01.489Z,0.70
2023-03-26T22:46:32.862Z,0.73
2023-03-26T22:48:59.396Z,0.60
2023-03-26T22:51:25.760Z,0.80
2023-03-26T22:53:52.071Z,0.80
2023-03-26T22:56:18.498Z,0.80
2023-03-26T22:58:45.100Z,0.90
2023-03-26T23:01:18.374Z,0.65
2023-03-26T23:03:45.712Z,0.93
2023-03-26T23:06:12.936Z,0.68
2023-03-26T23:08:40.105Z,0.50
2023-03-26T23:11:09.541Z,0.80
2023-03-26T23:13:35.825Z,0.70
2023-03-26T23:16:02.194Z,0.70
2023-03-26T23:18:28.760Z,0.85
2023-03-26T23:20:57.242Z,1.00
2023-03-26T23:23:29.320Z,0.73
2023-03-26T23:26:03.406Z,1.02
2023-03-26T23:28:31.877Z,0.90
2023-03-26T23:31:00.172Z,0.90
2023-03-26T23:33:29.073Z,1.00
2023-03-26T23:35:56.265Z,0.90
2023-03-26T23:38:22.605Z,0.95
2023-03-26T23:40:57.448Z,1.20
2023-03-26T23:43:25.406Z,1.10
2023-03-26T23:45:52.546Z,0.90
2023-03-26T23:48:21.389Z,1.00
2023-03-26T23:50:48.981Z,1.10
2023-03-26T23:55:45.040Z,1.08
2023-03-26T23:58:11.416Z,1.00
